sensor_id;sensor_type;location;lat;lon;timestamp;P1;durP1;ratioP1;P2;durP2;ratioP2
1412;SDS011;701;52.526;13.408;2023-07-16T00:02:14;8.65;;;3.22;;
1412;SDS011;701;52.526;13.408;2023-07-16T00:04:40;6.53;;;2.80;;
1412;SDS011;701;52.526;13.408;2023-07-16T00:07:05;7.15;;;2.83;;
1412;SDS011;701;52.526;13.408;2023-07-16T00:09:31;9.05;;;2.80;;
1412;SDS011;701;52.526;13.408;2023-07-16T00:11:57;7.53;;;2.57;;
1412;SDS011;701;52.526;13.408;2023-07-16T00:14:22;5.13;;;2.20;;
1412;SDS011;701;52.526;13.408;2023-07-16T00:16:48;5.73;;;2.50;;
1412;SDS011;701;52.526;13.408;2023-07-16T00:19:14;5.80;;;2.30;;
1412;SDS011;701;52.526;13.408;2023-07-16T00:21:40;6.37;;;2.33;;
1412;SDS011;701;52.526;13.408;2023-07-16T00:24:06;5.30;;;2.33;;
1412;SDS011;701;52.526;13.408;2023-07-16T00:26:31;8.20;;;2.20;;
1412;SDS011;701;52.526;13.408;2023-07-16T00:28:57;6.73;;;2.10;;
1412;SDS011;701;52.526;13.408;2023-07-16T00:31:23;6.40;;;2.60;;
1412;SDS011;701;52.526;13.408;2023-07-16T00:33:49;6.57;;;2.67;;
1412;SDS011;701;52.526;13.408;2023-07-16T00:36:15;6.23;;;2.23;;
1412;SDS011;701;52.526;13.408;2023-07-16T00:38:41;5.20;;;2.40;;
1412;SDS011;701;52.526;13.408;2023-07-16T00:41:08;5.25;;;2.38;;
1412;SDS011;701;52.526;13.408;2023-07-16T00:43:35;7.20;;;3.35;;
1412;SDS011;701;52.526;13.408;2023-07-16T00:46:00;8.13;;;3.17;;
1412;SDS011;701;52.526;13.408;2023-07-16T00:48:27;6.57;;;2.70;;
1412;SDS011;701;52.526;13.408;2023-07-16T00:50:54;6.40;;;3.05;;
1412;SDS011;701;52.526;13.408;2023-07-16T00:53:20;5.60;;;2.50;;
1412;SDS011;701;52.526;13.408;2023-07-16T00:55:47;7.13;;;2.60;;
1412;SDS011;701;52.526;13.408;2023-07-16T00:58:12;5.72;;;2.42;;
1412;SDS011;701;52.526;13.408;2023-07-16T01:00:39;6.45;;;2.45;;
1412;SDS011;701;52.526;13.408;2023-07-16T01:03:06;7.30;;;2.40;;
1412;SDS011;701;52.526;13.408;2023-07-16T01:05:56;5.60;;;2.67;;
1412;SDS011;701;52.526;13.408;2023-07-16T01:08:39;5.80;;;2.70;;
1412;SDS011;701;52.526;13.408;2023-07-16T01:11:10;8.82;;;2.78;;
1412;SDS011;701;52.526;13.408;2023-07-16T01:13:37;6.15;;;2.80;;
1412;SDS011;701;52.526;13.408;2023-07-16T01:16:03;6.83;;;2.63;;
1412;SDS011;701;52.526;13.408;2023-07-16T01:18:29;5.95;;;2.75;;
1412;SDS011;701;52.526;13.408;2023-07-16T01:20:55;6.28;;;2.67;;
1412;SDS011;701;52.526;13.408;2023-07-16T01:29:31;6.63;;;2.95;;
1412;SDS011;701;52.526;13.408;2023-07-16T01:32:05;12.27;;;2.80;;
1412;SDS011;701;52.526;13.408;2023-07-16T01:34:35;6.10;;;3.20;;
1412;SDS011;701;52.526;13.408;2023-07-16T01:37:02;7.27;;;3.23;;
1412;SDS011;701;52.526;13.408;2023-07-16T01:39:29;6.57;;;3.20;;
1412;SDS011;701;52.526;13.408;2023-07-16T01:41:56;7.38;;;3.00;;
1412;SDS011;701;52.526;13.408;2023-07-16T01:44:22;8.85;;;3.25;;
1412;SDS011;701;52.526;13.408;2023-07-16T01:46:49;7.50;;;3.60;;
1412;SDS011;701;52.526;13.408;2023-07-16T01:49:29;7.00;;;3.65;;
1412;SDS011;701;52.526;13.408;2023-07-16T01:51:55;9.23;;;3.40;;
1412;SDS011;701;52.526;13.408;2023-07-16T01:54:21;5.90;;;3.20;;
1412;SDS011;701;52.526;13.408;2023-07-16T01:56:47;5.80;;;3.03;;
1412;SDS011;701;52.526;13.408;2023-07-16T01:59:12;7.40;;;3.57;;
1412;SDS011;701;52.526;13.408;2023-07-16T02:01:38;7.75;;;3.55;;
1412;SDS011;701;52.526;13.408;2023-07-16T02:04:04;6.15;;;3.00;;
1412;SDS011;701;52.526;13.408;2023-07-16T02:06:33;6.43;;;3.00;;
1412;SDS011;701;52.526;13.408;2023-07-16T02:08:59;7.53;;;3.22;;
1412;SDS011;701;52.526;13.408;2023-07-16T02:11:24;6.77;;;3.20;;
1412;SDS011;701;52.526;13.408;2023-07-16T02:13:50;6.50;;;2.90;;
1412;SDS011;701;52.526;13.408;2023-07-16T02:16:16;7.03;;;2.63;;
1412;SDS011;701;52.526;13.408;2023-07-16T02:18:42;5.33;;;2.57;;
1412;SDS011;701;52.526;13.408;2023-07-16T02:21:07;6.13;;;2.10;;
1412;SDS011;701;52.526;13.408;2023-07-16T02:23:33;6.80;;;2.40;;
1412;SDS011;701;52.526;13.408;2023-07-16T02:25:59;6.80;;;2.45;;
1412;SDS011;701;52.526;13.408;2023-07-16T02:28:25;7.90;;;2.58;;
1412;SDS011;701;52.526;13.408;2023-07-16T02:30:52;8.43;;;2.33;;
1412;SDS011;701;52.526;13.408;2023-07-16T02:33:17;7.47;;;2.15;;
1412;SDS011;701;52.526;13.408;2023-07-16T02:35:47;5.57;;;2.40;;
1412;SDS011;701;52.526;13.408;2023-07-16T02:38:17;5.90;;;2.17;;
1412;SDS011;701;52.526;13.408;2023-07-16T02:40:43;6.75;;;2.17;;
1412;SDS011;701;52.526;13.408;2023-07-16T02:43:10;7.57;;;2.40;;
1412;SDS011;701;52.526;13.408;2023-07-16T02:45:37;5.47;;;2.35;;
1412;SDS011;701;52.526;13.408;2023-07-16T02:48:04;5.83;;;2.43;;
1412;SDS011;701;52.526;13.408;2023-07-16T02:50:33;4.80;;;2.03;;
1412;SDS011;701;52.526;13.408;2023-07-16T02:53:01;5.93;;;2.22;;
1412;SDS011;701;52.526;13.408;2023-07-16T02:55:28;5.85;;;2.10;;
1412;SDS011;701;52.526;13.408;2023-07-16T02:57:53;5.17;;;2.00;;
1412;SDS011;701;52.526;13.408;2023-07-16T03:00:19;5.28;;;2.30;;
1412;SDS011;701;52.526;13.408;2023-07-16T03:02:45;5.38;;;2.10;;
1412;SDS011;701;52.526;13.408;2023-07-16T03:05:11;5.73;;;2.30;;
1412;SDS011;701;52.526;13.408;2023-07-16T03:07:37;5.63;;;2.38;;
1412;SDS011;701;52.526;13.408;2023-07-16T03:10:02;6.17;;;2.50;;
1412;SDS011;701;52.526;13.408;2023-07-16T03:12:28;6.38;;;2.17;;
1412;SDS011;701;52.526;13.408;2023-07-16T03:14:54;5.68;;;2.58;;
1412;SDS011;701;52.526;13.408;2023-07-16T03:17:20;5.17;;;2.50;;
1412;SDS011;701;52.526;13.408;2023-07-16T03:19:49;5.82;;;2.28;;
1412;SDS011;701;52.526;13.408;2023-07-16T03:22:15;6.07;;;3.10;;
1412;SDS011;701;52.526;13.408;2023-07-16T03:24:41;8.03;;;2.93;;
1412;SDS011;701;52.526;13.408;2023-07-16T03:27:06;5.82;;;2.72;;
1412;SDS011;701;52.526;13.408;2023-07-16T03:29:36;5.80;;;2.60;;
1412;SDS011;701;52.526;13.408;2023-07-16T03:32:03;6.07;;;2.72;;
1412;SDS011;701;52.526;13.408;2023-07-16T03:34:29;6.00;;;2.70;;
1412;SDS011;701;52.526;13.408;2023-07-16T03:36:55;6.10;;;2.90;;
1412;SDS011;701;52.526;13.408;2023-07-16T03:39:21;6.03;;;2.37;;
1412;SDS011;701;52.526;13.408;2023-07-16T03:41:47;6.32;;;2.50;;
1412;SDS011;701;52.526;13.408;2023-07-16T03:44:13;6.38;;;2.72;;
1412;SDS011;701;52.526;13.408;2023-07-16T03:46:39;4.87;;;2.10;;
1412;SDS011;701;52.526;13.408;2023-07-16T03:49:08;4.70;;;2.10;;
1412;SDS011;701;52.526;13.408;2023-07-16T03:51:34;6.30;;;2.15;;
1412;SDS011;701;52.526;13.408;2023-07-16T03:54:00;4.50;;;1.80;;
1412;SDS011;701;52.526;13.408;2023-07-16T03:56:26;6.00;;;2.30;;
1412;SDS011;701;52.526;13.408;2023-07-16T03:58:52;4.40;;;1.73;;
1412;SDS011;701;52.526;13.408;2023-07-16T04:01:18;5.13;;;2.00;;
1412;SDS011;701;52.526;13.408;2023-07-16T04:03:44;5.68;;;2.10;;
1412;SDS011;701;52.526;13.408;2023-07-16T04:06:09;5.85;;;2.35;;
1412;SDS011;701;52.526;13.408;2023-07-16T04:08:36;5.43;;;1.80;;
1412;SDS011;701;52.526;13.408;2023-07-16T04:11:05;4.90;;;1.80;;
1412;SDS011;701;52.526;13.408;2023-07-16T04:13:31;5.47;;;1.80;;
1412;SDS011;701;52.526;13.408;2023-07-16T04:15:57;4.60;;;2.00;;
1412;SDS011;701;52.526;13.408;2023-07-16T04:18:24;4.72;;;1.90;;
1412;SDS011;701;52.526;13.408;2023-07-16T04:20:50;5.23;;;2.07;;
1412;SDS011;701;52.526;13.408;2023-07-16T04:23:16;5.68;;;1.80;;
1412;SDS011;701;52.526;13.408;2023-07-16T04:25:42;4.22;;;1.85;;
1412;SDS011;701;52.526;13.408;2023-07-16T04:28:07;4.70;;;1.80;;
1412;SDS011;701;52.526;13.408;2023-07-16T04:30:33;4.70;;;2.35;;
1412;SDS011;701;52.526;13.408;2023-07-16T04:32:59;5.85;;;1.90;;
1412;SDS011;701;52.526;13.408;2023-07-16T04:35:25;5.03;;;1.80;;
1412;SDS011;701;52.526;13.408;2023-07-16T04:37:50;5.13;;;2.03;;
1412;SDS011;701;52.526;13.408;2023-07-16T04:40:16;5.57;;;2.20;;
1412;SDS011;701;52.526;13.408;2023-07-16T04:42:42;4.47;;;1.83;;
1412;SDS011;701;52.526;13.408;2023-07-16T04:45:08;4.83;;;2.20;;
1412;SDS011;701;52.526;13.408;2023-07-16T04:47:33;8.15;;;1.98;;
1412;SDS011;701;52.526;13.408;2023-07-16T04:49:59;5.03;;;2.07;;
1412;SDS011;701;52.526;13.408;2023-07-16T04:52:25;4.72;;;2.00;;
1412;SDS011;701;52.526;13.408;2023-07-16T04:54:51;6.07;;;1.93;;
1412;SDS011;701;52.526;13.408;2023-07-16T04:57:16;5.32;;;1.88;;
1412;SDS011;701;52.526;13.408;2023-07-16T04:59:42;6.40;;;2.17;;
1412;SDS011;701;52.526;13.408;2023-07-16T05:02:08;5.93;;;1.90;;
1412;SDS011;701;52.526;13.408;2023-07-16T05:04:34;5.45;;;2.22;;
1412;SDS011;701;52.526;13.408;2023-07-16T05:07:03;5.47;;;2.00;;
1412;SDS011;701;52.526;13.408;2023-07-16T05:09:29;7.47;;;2.25;;
1412;SDS011;701;52.526;13.408;2023-07-16T05:11:55;6.57;;;2.55;;
1412;SDS011;701;52.526;13.408;2023-07-16T05:14:21;6.45;;;2.60;;
1412;SDS011;701;52.526;13.408;2023-07-16T05:16:47;6.63;;;2.33;;
1412;SDS011;701;52.526;13.408;2023-07-16T05:19:12;5.68;;;2.40;;
1412;SDS011;701;52.526;13.408;2023-07-16T05:21:38;5.00;;;2.50;;
1412;SDS011;701;52.526;13.408;2023-07-16T05:24:06;5.70;;;2.40;;
1412;SDS011;701;52.526;13.408;2023-07-16T05:26:31;4.72;;;2.20;;
1412;SDS011;701;52.526;13.408;2023-07-16T05:28:58;5.32;;;2.47;;
1412;SDS011;701;52.526;13.408;2023-07-16T05:31:24;8.53;;;2.53;;
1412;SDS011;701;52.526;13.408;2023-07-16T05:33:49;8.18;;;2.85;;
1412;SDS011;701;52.526;13.408;2023-07-16T05:36:15;6.67;;;2.60;;
1412;SDS011;701;52.526;13.408;2023-07-16T05:38:41;6.65;;;2.42;;
1412;SDS011;701;52.526;13.408;2023-07-16T05:41:07;6.40;;;2.30;;
1412;SDS011;701;52.526;13.408;2023-07-16T05:43:33;8.40;;;2.60;;
1412;SDS011;701;52.526;13.408;2023-07-16T05:45:59;6.15;;;2.30;;
1412;SDS011;701;52.526;13.408;2023-07-16T05:48:24;6.50;;;2.27;;
1412;SDS011;701;52.526;13.408;2023-07-16T05:50:50;6.18;;;3.05;;
1412;SDS011;701;52.526;13.408;2023-07-16T05:53:16;6.70;;;2.90;;
1412;SDS011;701;52.526;13.408;2023-07-16T05:55:42;5.13;;;2.22;;
1412;SDS011;701;52.526;13.408;2023-07-16T05:58:08;6.75;;;2.40;;
1412;SDS011;701;52.526;13.408;2023-07-16T06:00:34;5.67;;;2.63;;
1412;SDS011;701;52.526;13.408;2023-07-16T06:03:01;4.90;;;2.20;;
1412;SDS011;701;52.526;13.408;2023-07-16T06:05:27;5.93;;;2.85;;
1412;SDS011;701;52.526;13.408;2023-07-16T06:07:57;7.60;;;2.50;;
1412;SDS011;701;52.526;13.408;2023-07-16T06:10:23;5.57;;;2.47;;
1412;SDS011;701;52.526;13.408;2023-07-16T06:12:49;5.97;;;2.63;;
1412;SDS011;701;52.526;13.408;2023-07-16T06:15:15;8.15;;;2.53;;
1412;SDS011;701;52.526;13.408;2023-07-16T06:17:41;8.33;;;2.80;;
1412;SDS011;701;52.526;13.408;2023-07-16T06:20:07;8.02;;;2.90;;
1412;SDS011;701;52.526;13.408;2023-07-16T06:22:33;6.70;;;2.58;;
1412;SDS011;701;52.526;13.408;2023-07-16T06:24:59;5.55;;;2.78;;
1412;SDS011;701;52.526;13.408;2023-07-16T06:27:25;6.60;;;2.50;;
1412;SDS011;701;52.526;13.408;2023-07-16T06:29:51;5.93;;;2.30;;
1412;SDS011;701;52.526;13.408;2023-07-16T06:32:17;9.32;;;2.72;;
1412;SDS011;701;52.526;13.408;2023-07-16T06:34:43;9.02;;;2.60;;
1412;SDS011;701;52.526;13.408;2023-07-16T06:37:09;7.83;;;2.70;;
1412;SDS011;701;52.526;13.408;2023-07-16T06:39:34;6.45;;;2.70;;
1412;SDS011;701;52.526;13.408;2023-07-16T06:42:00;7.73;;;2.73;;
1412;SDS011;701;52.526;13.408;2023-07-16T06:44:26;7.93;;;2.60;;
1412;SDS011;701;52.526;13.408;2023-07-16T06:46:52;9.10;;;2.53;;
1412;SDS011;701;52.526;13.408;2023-07-16T06:49:18;7.27;;;2.47;;
1412;SDS011;701;52.526;13.408;2023-07-16T06:51:44;5.55;;;2.47;;
1412;SDS011;701;52.526;13.408;2023-07-16T06:54:10;6.73;;;2.67;;
1412;SDS011;701;52.526;13.408;2023-07-16T06:56:36;6.03;;;2.30;;
1412;SDS011;701;52.526;13.408;2023-07-16T06:59:01;7.70;;;2.20;;
1412;SDS011;701;52.526;13.408;2023-07-16T07:01:27;6.37;;;2.57;;
1412;SDS011;701;52.526;13.408;2023-07-16T07:03:53;6.47;;;2.55;;
1412;SDS011;701;52.526;13.408;2023-07-16T07:06:19;4.95;;;2.30;;
1412;SDS011;701;52.526;13.408;2023-07-16T07:08:46;5.18;;;2.40;;
1412;SDS011;701;52.526;13.408;2023-07-16T07:11:12;8.00;;;2.60;;
1412;SDS011;701;52.526;13.408;2023-07-16T07:13:38;6.00;;;2.80;;
1412;SDS011;701;52.526;13.408;2023-07-16T07:16:04;6.72;;;2.70;;
1412;SDS011;701;52.526;13.408;2023-07-16T07:18:29;5.40;;;2.17;;
1412;SDS011;701;52.526;13.408;2023-07-16T07:20:55;6.00;;;2.50;;
1412;SDS011;701;52.526;13.408;2023-07-16T07:23:21;6.37;;;2.10;;
1412;SDS011;701;52.526;13.408;2023-07-16T07:25:50;6.43;;;2.30;;
1412;SDS011;701;52.526;13.408;2023-07-16T07:28:16;5.22;;;2.25;;
1412;SDS011;701;52.526;13.408;2023-07-16T07:30:43;6.90;;;2.28;;
1412;SDS011;701;52.526;13.408;2023-07-16T07:33:09;4.77;;;2.33;;
1412;SDS011;701;52.526;13.408;2023-07-16T07:35:35;5.15;;;2.13;;
1412;SDS011;701;52.526;13.408;2023-07-16T07:38:01;7.25;;;2.55;;
1412;SDS011;701;52.526;13.408;2023-07-16T07:40:27;5.20;;;2.47;;
1412;SDS011;701;52.526;13.408;2023-07-16T07:42:52;5.57;;;2.10;;
1412;SDS011;701;52.526;13.408;2023-07-16T07:45:18;5.70;;;2.60;;
1412;SDS011;701;52.526;13.408;2023-07-16T07:47:44;5.60;;;2.03;;
1412;SDS011;701;52.526;13.408;2023-07-16T07:50:10;6.47;;;2.38;;
1412;SDS011;701;52.526;13.408;2023-07-16T07:52:36;8.15;;;3.40;;
1412;SDS011;701;52.526;13.408;2023-07-16T07:55:02;7.60;;;2.77;;
1412;SDS011;701;52.526;13.408;2023-07-16T07:57:28;6.18;;;2.60;;
1412;SDS011;701;52.526;13.408;2023-07-16T07:59:54;5.70;;;2.47;;
1412;SDS011;701;52.526;13.408;2023-07-16T08:02:23;5.38;;;2.28;;
1412;SDS011;701;52.526;13.408;2023-07-16T08:04:53;6.27;;;2.40;;
1412;SDS011;701;52.526;13.408;2023-07-16T08:07:20;5.90;;;2.47;;
1412;SDS011;701;52.526;13.408;2023-07-16T08:09:50;5.38;;;2.30;;
1412;SDS011;701;52.526;13.408;2023-07-16T08:12:16;4.60;;;2.03;;
1412;SDS011;701;52.526;13.408;2023-07-16T08:14:42;4.87;;;2.37;;
1412;SDS011;701;52.526;13.408;2023-07-16T08:17:08;6.15;;;2.38;;
1412;SDS011;701;52.526;13.408;2023-07-16T08:19:33;5.30;;;2.30;;
1412;SDS011;701;52.526;13.408;2023-07-16T08:21:59;4.80;;;2.20;;
1412;SDS011;701;52.526;13.408;2023-07-16T08:24:25;4.70;;;2.07;;
1412;SDS011;701;52.526;13.408;2023-07-16T08:26:51;5.13;;;2.13;;
1412;SDS011;701;52.526;13.408;2023-07-16T08:29:17;5.78;;;2.22;;
1412;SDS011;701;52.526;13.408;2023-07-16T08:31:42;5.63;;;2.03;;
1412;SDS011;701;52.526;13.408;2023-07-16T08:34:08;6.15;;;2.15;;
1412;SDS011;701;52.526;13.408;2023-07-16T08:36:34;4.50;;;2.30;;
1412;SDS011;701;52.526;13.408;2023-07-16T08:39:01;8.20;;;2.77;;
1412;SDS011;701;52.526;13.408;2023-07-16T08:41:27;4.97;;;2.95;;
1412;SDS011;701;52.526;13.408;2023-07-16T08:43:53;5.75;;;2.70;;
1412;SDS011;701;52.526;13.408;2023-07-16T08:46:20;5.35;;;2.85;;
1412;SDS011;701;52.526;13.408;2023-07-16T08:48:46;5.37;;;2.73;;
1412;SDS011;701;52.526;13.408;2023-07-16T08:51:14;6.07;;;2.85;;
1412;SDS011;701;52.526;13.408;2023-07-16T08:53:41;5.65;;;3.42;;
1412;SDS011;701;52.526;13.408;2023-07-16T08:56:07;5.88;;;2.17;;
1412;SDS011;701;52.526;13.408;2023-07-16T08:58:33;6.00;;;3.00;;
1412;SDS011;701;52.526;13.408;2023-07-16T09:01:00;6.73;;;3.17;;
1412;SDS011;701;52.526;13.408;2023-07-16T09:03:27;5.63;;;2.80;;
1412;SDS011;701;52.526;13.408;2023-07-16T09:05:53;7.20;;;3.33;;
1412;SDS011;701;52.526;13.408;2023-07-16T09:08:19;6.32;;;3.15;;
1412;SDS011;701;52.526;13.408;2023-07-16T09:10:52;8.93;;;4.00;;
1412;SDS011;701;52.526;13.408;2023-07-16T09:13:19;5.97;;;2.83;;
1412;SDS011;701;52.526;13.408;2023-07-16T09:15:50;5.82;;;3.10;;
1412;SDS011;701;52.526;13.408;2023-07-16T09:18:23;5.50;;;2.67;;
1412;SDS011;701;52.526;13.408;2023-07-16T09:20:59;7.30;;;3.22;;
1412;SDS011;701;52.526;13.408;2023-07-16T09:23:29;4.47;;;2.27;;
1412;SDS011;701;52.526;13.408;2023-07-16T09:25:56;5.10;;;2.70;;
1412;SDS011;701;52.526;13.408;2023-07-16T09:28:22;6.60;;;3.08;;
1412;SDS011;701;52.526;13.408;2023-07-16T09:30:48;5.50;;;2.22;;
1412;SDS011;701;52.526;13.408;2023-07-16T09:33:16;7.43;;;2.65;;
1412;SDS011;701;52.526;13.408;2023-07-16T09:35:43;6.73;;;2.90;;
1412;SDS011;701;52.526;13.408;2023-07-16T09:38:09;5.15;;;2.45;;
1412;SDS011;701;52.526;13.408;2023-07-16T09:40:39;6.72;;;2.70;;
1412;SDS011;701;52.526;13.408;2023-07-16T09:43:09;6.32;;;2.60;;
1412;SDS011;701;52.526;13.408;2023-07-16T09:45:35;5.82;;;2.60;;
1412;SDS011;701;52.526;13.408;2023-07-16T09:48:02;6.40;;;2.70;;
1412;SDS011;701;52.526;13.408;2023-07-16T09:50:29;4.70;;;2.22;;
1412;SDS011;701;52.526;13.408;2023-07-16T09:52:57;7.97;;;2.97;;
1412;SDS011;701;52.526;13.408;2023-07-16T09:55:24;5.93;;;2.55;;
1412;SDS011;701;52.526;13.408;2023-07-16T09:57:51;5.45;;;3.00;;
1412;SDS011;701;52.526;13.408;2023-07-16T10:00:20;6.60;;;2.63;;
1412;SDS011;701;52.526;13.408;2023-07-16T10:02:48;5.97;;;2.50;;
1412;SDS011;701;52.526;13.408;2023-07-16T10:05:25;5.22;;;2.72;;
1412;SDS011;701;52.526;13.408;2023-07-16T10:10:37;5.45;;;2.20;;
1412;SDS011;701;52.526;13.408;2023-07-16T10:13:04;6.00;;;2.37;;
1412;SDS011;701;52.526;13.408;2023-07-16T10:15:32;7.25;;;2.50;;
1412;SDS011;701;52.526;13.408;2023-07-16T10:17:58;5.03;;;2.10;;
1412;SDS011;701;52.526;13.408;2023-07-16T10:22:57;5.47;;;2.10;;
1412;SDS011;701;52.526;13.408;2023-07-16T10:25:26;6.72;;;2.33;;
1412;SDS011;701;52.526;13.408;2023-07-16T10:27:53;5.30;;;2.50;;
1412;SDS011;701;52.526;13.408;2023-07-16T10:30:19;6.53;;;2.45;;
1412;SDS011;701;52.526;13.408;2023-07-16T10:32:45;5.45;;;2.13;;
1412;SDS011;701;52.526;13.408;2023-07-16T10:35:11;4.97;;;2.70;;
1412;SDS011;701;52.526;13.408;2023-07-16T10:37:38;6.43;;;2.58;;
1412;SDS011;701;52.526;13.408;2023-07-16T10:40:05;5.93;;;2.30;;
1412;SDS011;701;52.526;13.408;2023-07-16T10:42:34;7.93;;;2.50;;
1412;SDS011;701;52.526;13.408;2023-07-16T10:45:01;9.10;;;2.70;;
1412;SDS011;701;52.526;13.408;2023-07-16T10:47:30;5.22;;;2.42;;
1412;SDS011;701;52.526;13.408;2023-07-16T10:49:57;5.35;;;2.13;;
1412;SDS011;701;52.526;13.408;2023-07-16T10:52:23;5.57;;;2.20;;
1412;SDS011;701;52.526;13.408;2023-07-16T10:54:50;5.53;;;2.30;;
1412;SDS011;701;52.526;13.408;2023-07-16T10:57:19;5.00;;;1.95;;
1412;SDS011;701;52.526;13.408;2023-07-16T10:59:50;6.05;;;2.10;;
1412;SDS011;701;52.526;13.408;2023-07-16T11:02:17;6.38;;;2.50;;
1412;SDS011;701;52.526;13.408;2023-07-16T11:04:43;6.70;;;2.17;;
1412;SDS011;701;52.526;13.408;2023-07-16T11:07:11;5.00;;;2.10;;
1412;SDS011;701;52.526;13.408;2023-07-16T11:12:11;6.13;;;2.28;;
1412;SDS011;701;52.526;13.408;2023-07-16T11:14:43;8.00;;;2.50;;
1412;SDS011;701;52.526;13.408;2023-07-16T11:17:10;9.10;;;2.40;;
1412;SDS011;701;52.526;13.408;2023-07-16T11:19:37;5.40;;;2.28;;
1412;SDS011;701;52.526;13.408;2023-07-16T11:22:04;7.03;;;2.20;;
1412;SDS011;701;52.526;13.408;2023-07-16T11:24:39;5.38;;;2.25;;
1412;SDS011;701;52.526;13.408;2023-07-16T11:27:36;6.20;;;2.22;;
1412;SDS011;701;52.526;13.408;2023-07-16T11:30:01;8.33;;;2.20;;
1412;SDS011;701;52.526;13.408;2023-07-16T11:32:29;6.82;;;2.20;;
1412;SDS011;701;52.526;13.408;2023-07-16T11:35:00;6.82;;;2.40;;
1412;SDS011;701;52.526;13.408;2023-07-16T11:37:29;7.63;;;2.28;;
1412;SDS011;701;52.526;13.408;2023-07-16T11:39:58;6.70;;;2.35;;
1412;SDS011;701;52.526;13.408;2023-07-16T11:44:53;5.43;;;2.22;;
1412;SDS011;701;52.526;13.408;2023-07-16T11:47:20;7.45;;;2.40;;
1412;SDS011;701;52.526;13.408;2023-07-16T11:49:46;5.30;;;1.93;;
1412;SDS011;701;52.526;13.408;2023-07-16T11:52:13;5.85;;;1.90;;
1412;SDS011;701;52.526;13.408;2023-07-16T11:54:39;6.78;;;2.45;;
1412;SDS011;701;52.526;13.408;2023-07-16T11:57:05;6.43;;;2.00;;
1412;SDS011;701;52.526;13.408;2023-07-16T11:59:31;6.05;;;2.20;;
1412;SDS011;701;52.526;13.408;2023-07-16T12:01:57;5.63;;;2.00;;
1412;SDS011;701;52.526;13.408;2023-07-16T12:04:23;5.70;;;2.10;;
1412;SDS011;701;52.526;13.408;2023-07-16T12:06:49;5.95;;;2.45;;
1412;SDS011;701;52.526;13.408;2023-07-16T12:09:14;4.90;;;1.88;;
1412;SDS011;701;52.526;13.408;2023-07-16T12:11:40;5.73;;;1.67;;
1412;SDS011;701;52.526;13.408;2023-07-16T12:14:06;5.40;;;1.80;;
1412;SDS011;701;52.526;13.408;2023-07-16T12:16:32;6.87;;;1.87;;
1412;SDS011;701;52.526;13.408;2023-07-16T12:18:57;5.70;;;1.90;;
1412;SDS011;701;52.526;13.408;2023-07-16T12:21:23;5.60;;;1.80;;
1412;SDS011;701;52.526;13.408;2023-07-16T12:23:49;8.70;;;2.43;;
1412;SDS011;701;52.526;13.408;2023-07-16T12:26:14;6.00;;;1.70;;
1412;SDS011;701;52.526;13.408;2023-07-16T12:28:40;5.70;;;2.13;;
1412;SDS011;701;52.526;13.408;2023-07-16T12:31:06;4.32;;;1.52;;
1412;SDS011;701;52.526;13.408;2023-07-16T12:33:31;6.37;;;1.50;;
1412;SDS011;701;52.526;13.408;2023-07-16T12:35:57;5.03;;;1.52;;
1412;SDS011;701;52.526;13.408;2023-07-16T12:38:23;6.43;;;1.83;;
1412;SDS011;701;52.526;13.408;2023-07-16T12:40:48;5.65;;;1.90;;
1412;SDS011;701;52.526;13.408;2023-07-16T12:43:14;5.10;;;1.60;;
1412;SDS011;701;52.526;13.408;2023-07-16T12:45:40;7.30;;;1.88;;
1412;SDS011;701;52.526;13.408;2023-07-16T12:48:06;6.17;;;1.80;;
1412;SDS011;701;52.526;13.408;2023-07-16T12:50:31;6.93;;;2.00;;
1412;SDS011;701;52.526;13.408;2023-07-16T12:52:57;6.27;;;2.00;;
1412;SDS011;701;52.526;13.408;2023-07-16T12:55:23;6.00;;;2.00;;
1412;SDS011;701;52.526;13.408;2023-07-16T12:57:49;6.10;;;2.10;;
1412;SDS011;701;52.526;13.408;2023-07-16T13:00:15;4.75;;;1.88;;
1412;SDS011;701;52.526;13.408;2023-07-16T13:02:40;6.00;;;1.70;;
1412;SDS011;701;52.526;13.408;2023-07-16T13:05:06;5.55;;;1.98;;
1412;SDS011;701;52.526;13.408;2023-07-16T13:07:32;5.68;;;2.10;;
1412;SDS011;701;52.526;13.408;2023-07-16T13:09:59;5.97;;;2.43;;
1412;SDS011;701;52.526;13.408;2023-07-16T13:12:24;6.18;;;1.83;;
1412;SDS011;701;52.526;13.408;2023-07-16T13:14:50;6.05;;;1.90;;
1412;SDS011;701;52.526;13.408;2023-07-16T13:17:16;5.63;;;1.60;;
1412;SDS011;701;52.526;13.408;2023-07-16T13:19:44;6.97;;;1.98;;
1412;SDS011;701;52.526;13.408;2023-07-16T13:22:10;7.57;;;1.90;;
1412;SDS011;701;52.526;13.408;2023-07-16T13:24:35;6.05;;;1.90;;
1412;SDS011;701;52.526;13.408;2023-07-16T13:27:01;7.63;;;1.70;;
1412;SDS011;701;52.526;13.408;2023-07-16T13:29:27;6.75;;;1.88;;
1412;SDS011;701;52.526;13.408;2023-07-16T13:31:53;6.20;;;1.50;;
1412;SDS011;701;52.526;13.408;2023-07-16T13:34:19;6.00;;;1.85;;
1412;SDS011;701;52.526;13.408;2023-07-16T13:36:44;5.13;;;1.70;;
1412;SDS011;701;52.526;13.408;2023-07-16T13:39:10;5.00;;;1.50;;
1412;SDS011;701;52.526;13.408;2023-07-16T13:41:38;4.80;;;1.98;;
1412;SDS011;701;52.526;13.408;2023-07-16T13:44:04;6.28;;;2.00;;
1412;SDS011;701;52.526;13.408;2023-07-16T13:46:30;5.90;;;2.17;;
1412;SDS011;701;52.526;13.408;2023-07-16T13:48:55;5.82;;;1.50;;
1412;SDS011;701;52.526;13.408;2023-07-16T13:51:22;7.13;;;2.53;;
1412;SDS011;701;52.526;13.408;2023-07-16T13:53:48;5.45;;;2.10;;
1412;SDS011;701;52.526;13.408;2023-07-16T13:56:14;5.20;;;1.80;;
1412;SDS011;701;52.526;13.408;2023-07-16T13:58:39;4.90;;;1.90;;
1412;SDS011;701;52.526;13.408;2023-07-16T14:01:05;8.95;;;1.70;;
1412;SDS011;701;52.526;13.408;2023-07-16T14:03:31;5.75;;;1.90;;
1412;SDS011;701;52.526;13.408;2023-07-16T14:05:57;9.20;;;1.80;;
1412;SDS011;701;52.526;13.408;2023-07-16T14:08:23;6.88;;;2.20;;
1412;SDS011;701;52.526;13.408;2023-07-16T14:10:48;6.17;;;2.10;;
1412;SDS011;701;52.526;13.408;2023-07-16T14:13:14;4.82;;;1.77;;
1412;SDS011;701;52.526;13.408;2023-07-16T14:15:41;5.25;;;1.73;;
1412;SDS011;701;52.526;13.408;2023-07-16T14:18:07;5.30;;;1.63;;
1412;SDS011;701;52.526;13.408;2023-07-16T14:20:33;4.97;;;1.77;;
1412;SDS011;701;52.526;13.408;2023-07-16T14:22:58;5.68;;;1.40;;
1412;SDS011;701;52.526;13.408;2023-07-16T14:25:25;6.78;;;1.88;;
1412;SDS011;701;52.526;13.408;2023-07-16T14:27:50;6.40;;;2.00;;
1412;SDS011;701;52.526;13.408;2023-07-16T14:30:16;6.93;;;1.90;;
1412;SDS011;701;52.526;13.408;2023-07-16T14:32:42;4.80;;;1.57;;
1412;SDS011;701;52.526;13.408;2023-07-16T14:35:08;4.88;;;1.90;;
1412;SDS011;701;52.526;13.408;2023-07-16T14:37:34;7.03;;;1.70;;
1412;SDS011;701;52.526;13.408;2023-07-16T14:40:00;6.00;;;1.60;;
1412;SDS011;701;52.526;13.408;2023-07-16T14:42:25;5.13;;;1.60;;
1412;SDS011;701;52.526;13.408;2023-07-16T14:44:51;5.20;;;1.90;;
1412;SDS011;701;52.526;13.408;2023-07-16T14:47:17;4.95;;;1.80;;
1412;SDS011;701;52.526;13.408;2023-07-16T14:49:43;7.10;;;1.47;;
1412;SDS011;701;52.526;13.408;2023-07-16T14:52:08;4.78;;;1.45;;
1412;SDS011;701;52.526;13.408;2023-07-16T14:54:34;5.47;;;1.67;;
1412;SDS011;701;52.526;13.408;2023-07-16T14:57:01;6.60;;;1.70;;
1412;SDS011;701;52.526;13.408;2023-07-16T14:59:28;6.28;;;1.67;;
1412;SDS011;701;52.526;13.408;2023-07-16T15:01:54;4.63;;;1.40;;
1412;SDS011;701;52.526;13.408;2023-07-16T15:04:19;5.70;;;1.70;;
1412;SDS011;701;52.526;13.408;2023-07-16T15:06:45;6.05;;;1.80;;
1412;SDS011;701;52.526;13.408;2023-07-16T15:09:11;4.13;;;1.53;;
1412;SDS011;701;52.526;13.408;2023-07-16T15:11:39;4.55;;;1.60;;
1412;SDS011;701;52.526;13.408;2023-07-16T15:14:04;6.53;;;1.50;;
1412;SDS011;701;52.526;13.408;2023-07-16T15:16:30;5.87;;;1.67;;
1412;SDS011;701;52.526;13.408;2023-07-16T15:18:56;8.93;;;1.60;;
1412;SDS011;701;52.526;13.408;2023-07-16T15:21:22;4.85;;;1.42;;
1412;SDS011;701;52.526;13.408;2023-07-16T15:23:47;4.77;;;1.53;;
1412;SDS011;701;52.526;13.408;2023-07-16T15:26:13;7.03;;;2.10;;
1412;SDS011;701;52.526;13.408;2023-07-16T15:28:39;5.25;;;1.52;;